Time;durP1;ratioP1;P1;durP2;ratioP2;P2;SDS_P1;SDS_P2;PMS_P1;PMS_P2;Temp;Humidity;BMP_temperature;BMP_pressure;BME280_temperature;BME280_humidity;BME280_pressure;Samples;Min_cycle;Max_cycle;Signal;HPM_P1;HPM_P2
2021/12/29 00:00:25;;;;;;;101.03;21.23;;;6.10;99.90;;;;;;5035079;28;20052;-62
2021/12/29 00:02:52;;;;;;;85.68;20.17;;;6.10;99.90;;;;;;5015631;28;20045;-62
2021/12/29 00:05:18;;;;;;;78.43;19.48;;;6.20;99.90;;;;;;5046950;28;20235;-62
2021/12/29 00:07:44;;;;;;;66.50;18.67;;;6.30;99.90;;;;;;5037136;28;20116;-62
2021/12/29 00:10:12;;;;;;;68.47;17.88;;;6.10;99.90;;;;;;5047834;28;20103;-62
2021/12/29 00:12:44;;;;;;;51.35;16.15;;;6.30;99.90;;;;;;5030922;28;20053;-62
2021/12/29 00:15:13;;;;;;;55.50;16.83;;;6.40;99.90;;;;;;5029189;28;20037;-62
2021/12/29 00:17:40;;;;;;;73.70;16.98;;;6.30;99.90;;;;;;5030600;28;20037;-62
2021/12/29 00:20:07;;;;;;;50.88;15.45;;;6.30;99.90;;;;;;5030685;28;20095;-62
2021/12/29 00:22:33;;;;;;;64.32;16.30;;;6.20;99.90;;;;;;5045240;28;20365;-62
2021/12/29 00:24:58;;;;;;;63.90;17.10;;;6.30;99.90;;;;;;5034324;28;20069;-62
2021/12/29 00:27:24;;;;;;;61.88;16.05;;;6.20;99.90;;;;;;5039636;28;20041;-62
2021/12/29 00:29:49;;;;;;;48.75;15.43;;;6.40;99.90;;;;;;5039208;28;20077;-62
2021/12/29 00:32:15;;;;;;;70.22;17.00;;;6.20;99.90;;;;;;5042281;28;20040;-62
2021/12/29 00:34:41;;;;;;;47.00;13.85;;;6.20;99.90;;;;;;5036146;28;20068;-62
2021/12/29 00:37:06;;;;;;;46.10;14.57;;;6.30;99.90;;;;;;5036293;28;20068;-62
2021/12/29 00:39:32;;;;;;;53.97;13.80;;;6.30;99.90;;;;;;5036407;28;20039;-62
2021/12/29 00:41:58;;;;;;;68.47;15.60;;;6.30;99.90;;;;;;5047852;28;20069;-62
2021/12/29 00:44:23;;;;;;;50.42;13.32;;;6.20;99.90;;;;;;5049254;28;20052;-62
2021/12/29 00:46:53;;;;;;;51.33;13.68;;;6.20;99.90;;;;;;5029920;28;20041;-62
2021/12/29 00:49:20;;;;;;;64.03;13.68;;;6.40;99.90;;;;;;5030310;28;20072;-62
2021/12/29 00:51:47;;;;;;;56.70;13.05;;;6.20;99.90;;;;;;5043557;28;20141;-62
2021/12/29 00:54:12;;;;;;;35.05;11.55;;;6.30;99.90;;;;;;5034200;28;20041;-62
2021/12/29 00:56:38;;;;;;;34.20;11.27;;;6.10;99.90;;;;;;5036546;28;20029;-62
2021/12/29 00:59:04;;;;;;;44.58;11.93;;;6.10;99.90;;;;;;5045533;28;20121;-62
2021/12/29 01:01:30;;;;;;;35.38;11.27;;;6.10;99.90;;;;;;5046266;28;20417;-62
2021/12/29 01:03:56;;;;;;;44.53;12.05;;;6.10;99.90;;;;;;5030255;28;20451;-62
2021/12/29 01:06:21;;;;;;;39.83;10.65;;;6.00;99.90;;;;;;5038211;28;20045;-62
2021/12/29 01:08:48;;;;;;;35.33;10.23;;;6.10;99.90;;;;;;5029803;28;20055;-62
2021/12/29 01:11:14;;;;;;;32.65;10.25;;;6.20;99.90;;;;;;5033630;28;20481;-62
2021/12/29 01:13:46;;;;;;;31.95;9.60;;;6.00;99.90;;;;;;5035473;28;20160;-62
2021/12/29 01:16:36;;;;;;;28.27;8.98;;;6.20;99.90;;;;;;5040589;28;20465;-62
2021/12/29 01:19:14;;;;;;;36.70;9.82;;;6.10;99.90;;;;;;5038022;28;20449;-62
2021/12/29 01:21:43;;;;;;;43.65;9.88;;;6.30;99.90;;;;;;5042471;28;20064;-62
2021/12/29 01:24:09;;;;;;;43.45;10.30;;;6.20;99.90;;;;;;5037346;28;20037;-62
2021/12/29 01:26:35;;;;;;;44.47;9.98;;;6.30;99.90;;;;;;5033434;28;20073;-62
2021/12/29 01:29:01;;;;;;;30.90;8.63;;;6.00;99.90;;;;;;5029575;28;20041;-62
2021/12/29 01:31:27;;;;;;;33.53;9.88;;;6.30;99.90;;;;;;5030381;28;20037;-62
2021/12/29 01:33:53;;;;;;;39.13;10.10;;;6.30;99.90;;;;;;5047217;28;20107;-62
2021/12/29 01:36:18;;;;;;;42.65;10.35;;;6.30;99.90;;;;;;5036946;28;20037;-62
2021/12/29 01:38:44;;;;;;;59.05;11.90;;;6.20;99.90;;;;;;5031269;28;20095;-62
2021/12/29 01:41:09;;;;;;;44.97;10.85;;;6.20;99.90;;;;;;5034763;28;20373;-62
2021/12/29 01:43:35;;;;;;;63.25;12.40;;;6.20;99.90;;;;;;5012640;28;20045;-62
2021/12/29 01:46:00;;;;;;;60.10;12.50;;;6.30;99.90;;;;;;5044140;28;20041;-62
2021/12/29 01:48:26;;;;;;;56.88;12.10;;;6.30;99.90;;;;;;5029685;28;20048;-62
2021/12/29 01:50:52;;;;;;;63.33;12.63;;;6.40;99.90;;;;;;5043902;28;20070;-62
2021/12/29 01:53:26;;;;;;;72.88;14.07;;;6.30;99.90;;;;;;5046248;28;20041;-62
2021/12/29 01:55:52;;;;;;;79.22;15.55;;;6.30;99.90;;;;;;5046531;28;20428;-62
2021/12/29 01:58:20;;;;;;;63.40;13.57;;;6.30;99.90;;;;;;5040064;28;20453;-62
2021/12/29 02:00:47;;;;;;;63.15;12.55;;;6.30;99.90;;;;;;5034102;28;20073;-63
2021/12/29 02:03:12;;;;;;;84.28;14.60;;;6.30;99.90;;;;;;5030063;28;20045;-63
2021/12/29 02:05:39;;;;;;;58.67;13.15;;;6.20;99.90;;;;;;5031130;28;20119;-62
2021/12/29 02:08:06;;;;;;;70.63;14.20;;;6.30;99.90;;;;;;5033032;28;20038;-62
2021/12/29 02:10:41;;;;;;;116.43;17.20;;;6.30;99.90;;;;;;5050080;28;20068;-62
2021/12/29 02:13:07;;;;;;;76.18;14.55;;;6.50;99.90;;;;;;5035529;28;20053;-62
2021/12/29 02:15:33;;;;;;;79.50;16.13;;;6.40;99.90;;;;;;5029158;28;20057;-62
2021/12/29 02:17:59;;;;;;;73.72;15.25;;;6.50;99.90;;;;;;5037124;28;20116;-62
2021/12/29 02:20:26;;;;;;;82.35;16.08;;;6.30;99.90;;;;;;5040808;28;20044;-62
2021/12/29 02:23:03;;;;;;;76.82;15.10;;;6.50;99.90;;;;;;5040515;28;20073;-62
2021/12/29 02:25:46;;;;;;;68.70;15.20;;;6.30;99.90;;;;;;5044436;28;20041;-62
2021/12/29 02:28:13;;;;;;;83.20;15.25;;;6.50;99.90;;;;;;5028473;28;20401;-62
2021/12/29 02:30:39;;;;;;;68.95;14.90;;;6.40;99.90;;;;;;5029151;28;20108;-63
2021/12/29 02:33:06;;;;;;;79.65;15.68;;;6.40;99.90;;;;;;5032059;28;20036;-62
2021/12/29 02:35:32;;;;;;;87.43;16.10;;;6.40;99.90;;;;;;5030455;28;20401;-62
2021/12/29 02:38:00;;;;;;;116.13;17.13;;;6.40;99.90;;;;;;5038909;28;20057;-62
2021/12/29 02:40:26;;;;;;;68.38;14.07;;;6.60;99.90;;;;;;5036711;28;20339;-62
2021/12/29 02:42:52;;;;;;;79.95;15.23;;;6.40;99.90;;;;;;5042686;28;20354;-63
2021/12/29 02:45:21;;;;;;;108.55;16.42;;;6.50;99.90;;;;;;5043619;28;20047;-62
2021/12/29 02:47:48;;;;;;;81.77;14.53;;;6.60;99.90;;;;;;5028387;28;20140;-62
2021/12/29 02:50:15;;;;;;;86.65;14.50;;;6.60;99.90;;;;;;5029129;28;20287;-62
2021/12/29 02:52:43;;;;;;;65.03;11.43;;;6.60;99.90;;;;;;5039149;28;20064;-62
2021/12/29 02:55:09;;;;;;;67.03;11.90;;;6.40;99.90;;;;;;5027448;28;20080;-62
2021/12/29 02:57:35;;;;;;;58.53;11.48;;;6.60;99.90;;;;;;5032207;28;20064;-62
2021/12/29 03:00:00;;;;;;;78.85;11.65;;;6.50;99.90;;;;;;5036582;28;20398;-62
2021/12/29 03:02:26;;;;;;;57.53;11.13;;;6.60;99.90;;;;;;5035861;28;20049;-62
2021/12/29 03:04:53;;;;;;;74.60;11.13;;;6.60;99.90;;;;;;5033139;28;20046;-62
2021/12/29 03:07:18;;;;;;;42.75;8.75;;;6.50;99.90;;;;;;5035875;28;20041;-62
2021/12/29 03:09:44;;;;;;;46.45;9.68;;;6.70;99.90;;;;;;5035219;28;20040;-62
2021/12/29 03:12:09;;;;;;;56.28;9.63;;;6.50;99.90;;;;;;5046421;28;20132;-62
2021/12/29 03:14:35;;;;;;;55.25;9.77;;;6.80;99.90;;;;;;5030866;28;20053;-62
2021/12/29 03:17:01;;;;;;;91.53;12.88;;;6.60;99.90;;;;;;5029723;28;20065;-62
2021/12/29 03:19:26;;;;;;;62.88;11.88;;;6.70;99.90;;;;;;5046876;28;20121;-62
2021/12/29 03:21:52;;;;;;;64.13;11.18;;;6.60;99.90;;;;;;5034271;28;20065;-62
2021/12/29 03:24:21;;;;;;;66.13;11.90;;;6.80;99.90;;;;;;5038404;28;20118;-62
2021/12/29 03:26:46;;;;;;;53.78;10.57;;;6.60;99.90;;;;;;5033510;28;20405;-62
2021/12/29 03:29:12;;;;;;;58.97;10.90;;;6.80;99.90;;;;;;5027032;28;20044;-61
2021/12/29 03:31:39;;;;;;;81.05;11.98;;;6.60;99.90;;;;;;5040528;28;20037;-62
2021/12/29 03:34:06;;;;;;;95.30;13.50;;;6.80;99.90;;;;;;5038233;28;20060;-62
2021/12/29 03:36:33;;;;;;;72.10;12.25;;;6.80;99.90;;;;;;5043844;28;20029;-62
2021/12/29 03:38:58;;;;;;;59.20;12.85;;;6.70;99.90;;;;;;5012233;28;20441;-62
2021/12/29 03:41:24;;;;;;;75.45;14.30;;;6.80;99.90;;;;;;5029967;28;20053;-62
2021/12/29 03:43:50;;;;;;;89.60;13.95;;;6.80;99.90;;;;;;5035050;28;20452;-62
2021/12/29 03:46:16;;;;;;;62.15;12.38;;;6.80;99.90;;;;;;5042244;28;20030;-62
2021/12/29 03:48:44;;;;;;;62.20;12.20;;;6.80;99.90;;;;;;5039448;28;20037;-62
2021/12/29 03:51:10;;;;;;;91.47;15.45;;;6.90;99.90;;;;;;5034487;28;20033;-62
2021/12/29 03:53:37;;;;;;;78.63;14.65;;;6.70;99.90;;;;;;5035132;28;20523;-62
2021/12/29 03:56:04;;;;;;;74.65;14.80;;;6.90;99.90;;;;;;5034500;28;20029;-64
2021/12/29 03:58:30;;;;;;;101.13;17.98;;;6.90;99.90;;;;;;5036729;28;20038;-63
2021/12/29 04:01:03;;;;;;;100.10;17.23;;;6.90;99.90;;;;;;5039391;28;20037;-62
2021/12/29 04:03:29;;;;;;;98.85;17.42;;;6.90;99.90;;;;;;5033326;28;20056;-63
2021/12/29 04:05:54;;;;;;;106.00;18.85;;;6.90;99.90;;;;;;5049418;28;20041;-63
2021/12/29 04:08:20;;;;;;;90.57;17.73;;;6.80;99.90;;;;;;5035678;28;20033;-63
2021/12/29 04:10:46;;;;;;;112.95;19.70;;;6.90;99.90;;;;;;5051652;28;20041;-62
2021/12/29 04:13:11;;;;;;;97.30;19.13;;;7.00;99.90;;;;;;5051285;28;20475;-63
2021/12/29 04:15:38;;;;;;;100.40;20.13;;;7.00;99.90;;;;;;5050926;28;20376;-62
2021/12/29 04:18:14;;;;;;;90.55;18.77;;;6.90;99.90;;;;;;5034866;28;20040;-62
2021/12/29 04:21:01;;;;;;;135.50;22.80;;;6.80;99.90;;;;;;5042319;28;20064;-62
2021/12/29 04:23:36;;;;;;;117.57;21.05;;;6.90;99.90;;;;;;5035319;28;20067;-62
2021/12/29 04:26:07;;;;;;;151.18;25.63;;;7.10;99.90;;;;;;5035779;28;20061;-63
2021/12/29 04:28:33;;;;;;;114.90;23.60;;;7.10;99.90;;;;;;5048071;28;20037;-63
2021/12/29 04:31:05;;;;;;;114.57;22.30;;;7.10;99.90;;;;;;5044512;28;20542;-63
2021/12/29 04:33:31;;;;;;;126.40;23.85;;;7.10;99.90;;;;;;5040301;28;20056;-62
2021/12/29 04:35:57;;;;;;;122.13;23.95;;;7.10;99.90;;;;;;5041915;28;20497;-62
2021/12/29 04:38:24;;;;;;;128.77;23.80;;;7.10;99.90;;;;;;5022161;28;20049;-62
2021/12/29 04:40:53;;;;;;;109.00;22.60;;;7.10;99.90;;;;;;5046644;28;20032;-62
2021/12/29 04:43:19;;;;;;;109.18;23.70;;;7.00;99.90;;;;;;5045028;28;20041;-62
2021/12/29 04:45:45;;;;;;;109.72;23.48;;;7.00;99.90;;;;;;5041061;28;20044;-62
2021/12/29 04:48:13;;;;;;;143.23;24.17;;;7.20;99.90;;;;;;5035551;28;20103;-62
2021/12/29 04:50:50;;;;;;;150.02;26.75;;;7.00;99.90;;;;;;5043246;28;20076;-63
2021/12/29 04:53:17;;;;;;;145.00;25.45;;;7.20;99.90;;;;;;5044889;28;20346;-62
2021/12/29 04:55:45;;;;;;;141.02;24.63;;;7.10;99.90;;;;;;5040377;28;20037;-62
2021/12/29 04:58:12;;;;;;;127.32;23.67;;;7.10;99.90;;;;;;5046395;28;20045;-62
2021/12/29 05:00:37;;;;;;;107.82;23.48;;;7.10;99.90;;;;;;5034713;28;20083;-63
2021/12/29 05:03:04;;;;;;;130.02;26.08;;;7.00;99.90;;;;;;5039004;28;20050;-63
2021/12/29 05:10:43;;;;;;;101.60;24.52;;;7.10;99.90;;;;;;5033782;28;20042;-63
2021/12/29 05:13:09;;;;;;;112.20;24.20;;;7.00;99.90;;;;;;5014064;28;20056;-62
2021/12/29 05:15:35;;;;;;;115.93;25.00;;;7.10;99.90;;;;;;5031826;28;20420;-63
2021/12/29 05:18:01;;;;;;;101.00;23.52;;;7.00;99.90;;;;;;5038704;28;20060;-63
2021/12/29 05:20:28;;;;;;;110.57;24.85;;;7.00;99.90;;;;;;5044727;28;20068;-63
2021/12/29 05:22:55;;;;;;;104.90;23.98;;;7.00;99.90;;;;;;5045179;28;20041;-63
2021/12/29 05:25:21;;;;;;;106.45;23.13;;;7.00;99.90;;;;;;5043902;28;20045;-63
2021/12/29 05:27:46;;;;;;;105.75;24.48;;;7.20;99.90;;;;;;5046449;28;20049;-63
2021/12/29 05:30:12;;;;;;;111.72;23.65;;;7.20;99.90;;;;;;5038280;28;20037;-63
2021/12/29 05:32:38;;;;;;;115.28;23.42;;;7.00;99.90;;;;;;5045535;28;20036;-63
2021/12/29 05:35:04;;;;;;;105.40;23.00;;;7.20;99.90;;;;;;5045201;28;20342;-63
2021/12/29 05:37:29;;;;;;;106.20;22.77;;;7.20;99.90;;;;;;5040434;28;20037;-63
2021/12/29 05:39:55;;;;;;;107.90;23.80;;;7.10;99.90;;;;;;5041487;28;20045;-63
2021/12/29 05:42:21;;;;;;;106.88;22.85;;;7.20;99.90;;;;;;5029793;28;20493;-63
2021/12/29 05:44:46;;;;;;;114.25;22.48;;;7.00;99.90;;;;;;5038983;28;20417;-63
2021/12/29 05:47:12;;;;;;;100.78;21.73;;;7.20;99.90;;;;;;5038817;28;20036;-63
2021/12/29 05:49:37;;;;;;;113.72;24.25;;;7.20;99.90;;;;;;5031930;28;20038;-63
2021/12/29 05:52:03;;;;;;;104.85;22.25;;;7.10;99.90;;;;;;5038738;28;20767;-63
2021/12/29 05:54:29;;;;;;;88.95;20.02;;;7.10;99.90;;;;;;5034723;28;20335;-62
2021/12/29 05:56:55;;;;;;;140.63;23.90;;;7.00;99.90;;;;;;5040435;28;20049;-63
2021/12/29 05:59:20;;;;;;;122.82;22.58;;;7.10;99.90;;;;;;5048220;28;20153;-63
2021/12/29 06:01:46;;;;;;;96.88;20.95;;;7.30;99.90;;;;;;5032614;28;20409;-63
2021/12/29 06:04:12;;;;;;;99.30;22.13;;;7.10;99.90;;;;;;5039095;28;20063;-63
2021/12/29 06:06:37;;;;;;;89.00;20.80;;;7.30;99.90;;;;;;5039011;28;20065;-63
2021/12/29 06:09:03;;;;;;;106.05;23.00;;;7.10;99.90;;;;;;5030216;28;20041;-63
2021/12/29 06:11:29;;;;;;;109.88;23.15;;;7.20;99.90;;;;;;5048432;28;20037;-62
2021/12/29 06:13:54;;;;;;;119.20;22.95;;;7.30;99.90;;;;;;5050110;28;20049;-62
2021/12/29 06:16:20;;;;;;;85.05;20.23;;;7.20;99.90;;;;;;5049295;28;20060;-63
2021/12/29 06:18:46;;;;;;;115.88;23.15;;;7.20;99.90;;;;;;5033800;28;20045;-62
2021/12/29 06:21:16;;;;;;;102.45;22.20;;;7.30;99.90;;;;;;5047990;28;20097;-63
2021/12/29 06:23:44;;;;;;;122.53;23.25;;;7.10;99.90;;;;;;5041725;28;20473;-63
2021/12/29 06:26:10;;;;;;;103.10;22.63;;;7.20;99.90;;;;;;5037883;28;20800;-63
2021/12/29 06:28:36;;;;;;;94.55;22.70;;;7.20;99.90;;;;;;5032799;28;20136;-65
2021/12/29 06:31:02;;;;;;;96.63;22.33;;;7.10;99.90;;;;;;5039432;28;20567;-63
2021/12/29 06:33:27;;;;;;;101.07;23.55;;;7.10;99.90;;;;;;5054378;28;20037;-63
2021/12/29 06:35:53;;;;;;;89.63;22.05;;;7.10;99.90;;;;;;5039787;28;20029;-63
2021/12/29 06:38:18;;;;;;;87.70;21.50;;;7.10;99.90;;;;;;5044543;28;20041;-62
2021/12/29 06:40:44;;;;;;;100.00;21.35;;;7.10;99.90;;;;;;5034132;28;20032;-62
2021/12/29 06:43:09;;;;;;;87.20;20.85;;;7.30;99.90;;;;;;5048367;28;20025;-62
2021/12/29 06:45:35;;;;;;;105.40;23.33;;;7.10;99.90;;;;;;5047580;28;20068;-63
2021/12/29 06:48:00;;;;;;;101.55;21.27;;;7.20;99.90;;;;;;5031148;28;20503;-63
2021/12/29 06:50:26;;;;;;;87.47;20.02;;;7.10;99.90;;;;;;5045929;28;20433;-63
2021/12/29 06:52:52;;;;;;;117.30;23.02;;;7.20;99.90;;;;;;5042484;28;20032;-63
2021/12/29 06:55:17;;;;;;;86.95;19.67;;;7.10;99.90;;;;;;5047364;28;20045;-63
2021/12/29 06:57:43;;;;;;;101.70;20.70;;;7.30;99.90;;;;;;5036330;28;20624;-63
2021/12/29 07:00:09;;;;;;;89.90;20.17;;;7.20;99.90;;;;;;5043135;28;20476;-62
2021/12/29 07:02:35;;;;;;;89.75;20.05;;;7.30;99.90;;;;;;5037612;28;20029;-63
2021/12/29 07:05:00;;;;;;;106.20;20.25;;;7.20;99.90;;;;;;5035896;28;20045;-62
2021/12/29 07:07:26;;;;;;;103.95;20.75;;;7.30;99.90;;;;;;5030176;28;20041;-63
2021/12/29 07:09:51;;;;;;;90.43;20.13;;;7.30;99.90;;;;;;5043195;28;20099;-63
2021/12/29 07:12:19;;;;;;;82.80;19.63;;;7.30;99.90;;;;;;5028943;28;20744;-62
2021/12/29 07:14:45;;;;;;;88.50;19.48;;;7.20;99.90;;;;;;5035064;28;20370;-63
2021/12/29 07:17:11;;;;;;;95.13;20.42;;;7.10;99.90;;;;;;5037010;28;20047;-63
2021/12/29 07:19:36;;;;;;;81.15;19.55;;;7.10;99.90;;;;;;5032561;28;20034;-62
2021/12/29 07:22:04;;;;;;;85.38;19.38;;;7.10;99.90;;;;;;5030264;28;20037;-63
2021/12/29 07:24:30;;;;;;;74.68;18.05;;;7.30;99.90;;;;;;5036560;28;20048;-63
2021/12/29 07:26:56;;;;;;;90.28;19.17;;;7.20;99.90;;;;;;5032118;28;20103;-63
2021/12/29 07:29:22;;;;;;;85.55;18.80;;;7.20;99.90;;;;;;5046619;28;20076;-62
2021/12/29 07:31:47;;;;;;;84.18;18.70;;;7.30;99.90;;;;;;5043711;28;20091;-64
2021/12/29 07:34:13;;;;;;;95.22;19.65;;;7.20;99.90;;;;;;5043016;28;20349;-62
2021/12/29 07:36:39;;;;;;;95.88;19.30;;;7.30;99.90;;;;;;5049972;28;20037;-63
2021/12/29 07:39:09;;;;;;;76.68;17.02;;;7.10;99.90;;;;;;5046386;28;20037;-63
2021/12/29 07:41:35;;;;;;;94.43;19.75;;;7.30;99.90;;;;;;5044880;28;20051;-62
2021/12/29 07:44:03;;;;;;;87.63;18.80;;;7.30;99.90;;;;;;5032863;28;20393;-63
2021/12/29 07:46:32;;;;;;;94.82;18.35;;;7.30;99.90;;;;;;5032478;28;20374;-63
2021/12/29 07:48:58;;;;;;;71.25;16.73;;;7.30;99.90;;;;;;5032906;28;20064;-63
2021/12/29 07:51:24;;;;;;;74.28;17.25;;;7.20;99.90;;;;;;5039268;28;20452;-63
2021/12/29 07:53:50;;;;;;;89.82;19.38;;;7.20;99.90;;;;;;5038065;28;20041;-68
2021/12/29 07:56:17;;;;;;;90.05;18.20;;;7.30;99.90;;;;;;5037590;28;20503;-63
2021/12/29 07:58:42;;;;;;;87.18;17.65;;;7.30;99.90;;;;;;5033885;28;20116;-62
2021/12/29 08:01:09;;;;;;;77.63;17.23;;;7.30;99.90;;;;;;5040137;28;20132;-63
2021/12/29 08:03:35;;;;;;;105.50;20.52;;;7.20;99.90;;;;;;5040897;28;20099;-64
2021/12/29 08:06:01;;;;;;;86.90;17.92;;;7.40;99.90;;;;;;5044801;28;20045;-63
2021/12/29 08:08:26;;;;;;;100.07;19.80;;;7.20;99.90;;;;;;5037011;28;20066;-62
2021/12/29 08:10:53;;;;;;;84.80;18.15;;;7.20;99.90;;;;;;5033420;28;20041;-62
2021/12/29 08:13:18;;;;;;;85.03;19.25;;;7.20;99.90;;;;;;5030785;28;20052;-62
2021/12/29 08:15:44;;;;;;;74.57;17.58;;;7.30;99.90;;;;;;5041424;28;20045;-64
2021/12/29 08:18:09;;;;;;;94.50;18.25;;;7.20;99.90;;;;;;5037431;28;20448;-63
2021/12/29 08:20:36;;;;;;;91.75;19.63;;;7.20;99.90;;;;;;5040037;28;20105;-63
2021/12/29 08:23:04;;;;;;;73.55;16.70;;;7.20;99.90;;;;;;5035357;28;20032;-62
2021/12/29 08:25:30;;;;;;;93.25;17.92;;;7.40;99.90;;;;;;5046238;28;20453;-63
2021/12/29 08:27:55;;;;;;;112.18;21.42;;;7.30;99.90;;;;;;5040158;28;20048;-63
2021/12/29 08:30:21;;;;;;;69.78;16.45;;;7.40;99.90;;;;;;5034833;28;20053;-62
2021/12/29 08:32:46;;;;;;;76.55;17.65;;;7.30;99.90;;;;;;5044672;28;20051;-63
2021/12/29 08:35:12;;;;;;;89.25;18.52;;;7.30;99.90;;;;;;5041118;28;20043;-63
2021/12/29 08:37:38;;;;;;;120.38;20.27;;;7.30;99.90;;;;;;5031296;28;20046;-63
2021/12/29 08:40:07;;;;;;;103.35;19.85;;;7.30;99.90;;;;;;5031774;28;20033;-63
2021/12/29 08:42:33;;;;;;;98.85;17.75;;;7.30;99.90;;;;;;5046060;28;20072;-63
2021/12/29 08:44:59;;;;;;;124.82;20.70;;;7.40;99.90;;;;;;5041641;28;20037;-63
2021/12/29 08:47:25;;;;;;;77.68;17.15;;;7.30;99.90;;;;;;5031941;28;20461;-63
2021/12/29 08:49:50;;;;;;;103.03;20.23;;;7.30;99.90;;;;;;5032377;28;20091;-62
2021/12/29 08:52:16;;;;;;;100.55;19.75;;;7.30;99.90;;;;;;5040214;28;20111;-63
2021/12/29 08:54:42;;;;;;;158.38;24.67;;;7.30;99.90;;;;;;5037844;28;20052;-62
2021/12/29 08:57:07;;;;;;;89.03;18.73;;;7.40;99.90;;;;;;5039813;28;20052;-63
2021/12/29 08:59:33;;;;;;;121.68;22.17;;;7.40;99.90;;;;;;5041080;28;20060;-63
2021/12/29 09:01:59;;;;;;;84.13;18.25;;;7.40;99.90;;;;;;5030993;28;20083;-63
2021/12/29 09:04:25;;;;;;;103.63;19.67;;;7.50;99.90;;;;;;5042985;28;20393;-63
2021/12/29 09:06:52;;;;;;;75.78;17.08;;;7.40;99.90;;;;;;5051777;28;20068;-63
2021/12/29 09:09:19;;;;;;;89.82;19.20;;;7.40;99.90;;;;;;5019467;28;20048;-63
2021/12/29 09:11:45;;;;;;;82.15;18.77;;;7.60;99.90;;;;;;5031376;28;20057;-63
2021/12/29 09:14:10;;;;;;;88.32;18.60;;;7.60;99.90;;;;;;5031794;28;20058;-62
2021/12/29 09:16:36;;;;;;;80.70;16.38;;;7.60;99.90;;;;;;5046464;28;20151;-63
2021/12/29 09:19:02;;;;;;;89.38;18.10;;;7.60;99.90;;;;;;5030001;28;20033;-62
2021/12/29 09:21:29;;;;;;;84.00;17.55;;;7.50;99.90;;;;;;5044031;28;20029;-63
2021/12/29 09:23:55;;;;;;;81.32;18.08;;;7.50;99.90;;;;;;5035573;28;20168;-62
2021/12/29 09:26:20;;;;;;;92.82;19.30;;;7.50;99.90;;;;;;5025880;28;20065;-63
2021/12/29 09:28:47;;;;;;;88.60;18.23;;;7.50;99.90;;;;;;5034713;28;20561;-63
2021/12/29 09:31:15;;;;;;;88.00;17.30;;;7.50;99.90;;;;;;5029918;28;20034;-63
2021/12/29 09:33:42;;;;;;;65.68;16.65;;;7.70;99.90;;;;;;5039304;28;20037;-63
2021/12/29 09:36:08;;;;;;;70.28;16.83;;;7.80;99.90;;;;;;5035703;28;20049;-63
2021/12/29 09:38:36;;;;;;;92.78;17.98;;;7.70;99.90;;;;;;5027664;28;20033;-62
2021/12/29 09:41:04;;;;;;;86.30;17.92;;;7.80;99.90;;;;;;5055865;28;20045;-63
2021/12/29 09:43:30;;;;;;;69.80;15.45;;;7.80;99.90;;;;;;5047484;28;20037;-63
2021/12/29 09:45:55;;;;;;;87.22;17.63;;;7.70;99.90;;;;;;5048994;28;20052;-62
2021/12/29 09:48:22;;;;;;;83.57;17.23;;;7.80;99.90;;;;;;5040887;28;20041;-63
2021/12/29 09:50:48;;;;;;;64.28;14.93;;;7.90;99.90;;;;;;5050820;28;20480;-63
2021/12/29 09:53:15;;;;;;;69.60;15.50;;;7.90;99.90;;;;;;5049478;28;20428;-63
2021/12/29 09:55:41;;;;;;;85.50;16.35;;;7.90;99.90;;;;;;5049570;28;20044;-62
2021/12/29 09:58:07;;;;;;;59.55;14.20;;;7.90;99.90;;;;;;5049210;28;20120;-63
2021/12/29 10:00:39;;;;;;;60.38;14.13;;;7.80;99.90;;;;;;5050301;28;20551;-63
2021/12/29 10:03:08;;;;;;;62.35;14.48;;;7.90;99.90;;;;;;5044593;28;20120;-63
2021/12/29 10:05:35;;;;;;;60.78;14.18;;;7.80;99.90;;;;;;5037417;28;20395;-65
2021/12/29 10:08:11;;;;;;;65.93;15.80;;;7.90;99.90;;;;;;5035275;28;20049;-63
2021/12/29 10:10:40;;;;;;;62.42;13.73;;;8.00;99.90;;;;;;5043243;28;20144;-62
2021/12/29 10:13:07;;;;;;;65.65;13.73;;;8.00;99.90;;;;;;5047476;28;20092;-63
2021/12/29 10:15:39;;;;;;;56.50;13.77;;;8.00;99.90;;;;;;5048117;28;20523;-63
2021/12/29 10:18:11;;;;;;;59.75;14.02;;;8.00;99.90;;;;;;5048900;28;20056;-63
2021/12/29 10:20:53;;;;;;;59.47;13.68;;;7.90;99.90;;;;;;5049739;28;20041;-63
2021/12/29 10:23:31;;;;;;;53.35;14.57;;;8.10;99.90;;;;;;5042658;28;20378;-63
2021/12/29 10:26:16;;;;;;;43.83;12.18;;;8.10;99.90;;;;;;5046712;28;20036;-62
2021/12/29 10:28:47;;;;;;;49.40;12.80;;;8.00;99.90;;;;;;5040068;28;20053;-63
2021/12/29 10:31:24;;;;;;;44.17;12.00;;;8.00;99.90;;;;;;5049824;28;20041;-62
2021/12/29 10:33:56;;;;;;;38.38;11.18;;;8.10;99.90;;;;;;5047582;28;20052;-63
2021/12/29 10:36:27;;;;;;;35.50;10.02;;;8.10;99.90;;;;;;5051020;28;20035;-62
2021/12/29 10:39:03;;;;;;;38.80;10.00;;;8.10;99.90;;;;;;5049664;28;20120;-62
2021/12/29 10:41:31;;;;;;;38.92;9.45;;;8.10;99.90;;;;;;5047557;28;20086;-63
2021/12/29 10:44:00;;;;;;;30.60;9.77;;;8.00;99.90;;;;;;5034602;28;20148;-63
2021/12/29 10:46:31;;;;;;;32.72;9.52;;;8.00;99.90;;;;;;5048115;28;20056;-63
2021/12/29 10:48:59;;;;;;;39.70;9.82;;;8.10;99.90;;;;;;5032514;28;20124;-63
2021/12/29 10:51:43;;;;;;;25.58;9.18;;;8.00;99.90;;;;;;5038867;28;20045;-62
2021/12/29 10:54:19;;;;;;;27.42;9.65;;;8.10;99.90;;;;;;5050163;28;20122;-63
2021/12/29 10:57:06;;;;;;;31.38;9.00;;;8.20;99.90;;;;;;5040059;28;20048;-62
2021/12/29 10:59:36;;;;;;;25.23;8.60;;;8.10;99.90;;;;;;5034999;28;20401;-62
2021/12/29 11:02:03;;;;;;;30.85;8.52;;;8.10;99.90;;;;;;5048716;28;20040;-63
2021/12/29 11:04:28;;;;;;;19.52;7.20;;;8.10;99.90;;;;;;5047805;28;20449;-63
2021/12/29 11:06:56;;;;;;;26.27;8.23;;;8.10;99.90;;;;;;5053988;28;20043;-63
2021/12/29 11:09:35;;;;;;;30.60;8.93;;;8.00;99.90;;;;;;5043490;28;20033;-63
2021/12/29 11:12:10;;;;;;;27.42;8.48;;;8.10;99.90;;;;;;5043993;28;20883;-62
2021/12/29 11:14:42;;;;;;;27.25;8.25;;;8.10;99.90;;;;;;5044065;28;20051;-63
2021/12/29 11:17:21;;;;;;;35.17;9.73;;;7.90;99.90;;;;;;5051754;28;20044;-63
2021/12/29 11:19:56;;;;;;;34.97;9.57;;;8.00;99.90;;;;;;5053435;28;20219;-63
2021/12/29 11:22:26;;;;;;;27.70;9.02;;;8.00;99.90;;;;;;5034086;28;20034;-63
2021/12/29 11:24:59;;;;;;;28.25;8.55;;;8.00;99.90;;;;;;5044365;28;20091;-63
2021/12/29 11:27:26;;;;;;;29.20;9.05;;;8.00;99.90;;;;;;5053552;28;20098;-63
2021/12/29 11:30:12;;;;;;;29.77;9.27;;;8.00;99.90;;;;;;5054303;28;20041;-63
2021/12/29 11:32:43;;;;;;;29.48;9.30;;;7.90;99.90;;;;;;5046595;28;20354;-63
2021/12/29 11:35:15;;;;;;;30.05;9.88;;;7.90;99.90;;;;;;5033171;28;20398;-63
2021/12/29 11:37:44;;;;;;;37.63;10.00;;;7.90;99.90;;;;;;5037327;28;20116;-63
2021/12/29 11:40:12;;;;;;;29.75;9.20;;;8.10;99.90;;;;;;5038404;28;20103;-63
2021/12/29 11:42:38;;;;;;;26.98;8.75;;;8.00;99.90;;;;;;5043378;28;20468;-63
2021/12/29 11:45:05;;;;;;;31.70;9.30;;;8.00;99.90;;;;;;5037598;28;20068;-63
2021/12/29 11:47:31;;;;;;;31.80;9.63;;;8.10;99.90;;;;;;5035789;28;20064;-63
2021/12/29 11:49:57;;;;;;;29.58;10.18;;;8.00;99.90;;;;;;5045973;28;20053;-63
2021/12/29 11:52:45;;;;;;;31.00;10.18;;;8.00;99.90;;;;;;5041781;28;20041;-63
2021/12/29 11:55:28;;;;;;;34.35;9.80;;;8.00;99.90;;;;;;5034333;28;20041;-63
2021/12/29 11:57:54;;;;;;;40.00;11.05;;;8.10;99.90;;;;;;5042356;28;20108;-63
2021/12/29 12:00:23;;;;;;;38.55;10.43;;;8.10;99.90;;;;;;5052986;28;20524;-63
2021/12/29 12:02:52;;;;;;;39.65;11.10;;;8.10;99.90;;;;;;5053776;28;20089;-63
2021/12/29 12:05:22;;;;;;;37.13;11.80;;;8.20;99.90;;;;;;5053289;28;20048;-63
2021/12/29 12:07:48;;;;;;;35.72;12.85;;;8.20;99.90;;;;;;5051216;28;20049;-63
2021/12/29 12:10:35;;;;;;;42.15;12.73;;;8.20;99.90;;;;;;5038393;28;20068;-63
2021/12/29 12:13:18;;;;;;;52.17;13.02;;;8.30;99.90;;;;;;5046750;28;20059;-63
2021/12/29 12:15:44;;;;;;;36.58;11.63;;;8.30;99.90;;;;;;5051370;28;20049;-63
2021/12/29 12:18:09;;;;;;;31.65;11.48;;;8.20;99.90;;;;;;5050461;28;20449;-63
2021/12/29 12:20:53;;;;;;;39.10;12.00;;;8.20;99.90;;;;;;5039602;28;20439;-63
2021/12/29 12:23:29;;;;;;;37.28;11.45;;;8.10;99.90;;;;;;5034902;28;20107;-63
2021/12/29 12:26:08;;;;;;;33.72;10.43;;;8.20;99.90;;;;;;5047801;28;20037;-63
2021/12/29 12:28:46;;;;;;;32.95;10.90;;;8.10;99.90;;;;;;5038330;28;20044;-63
2021/12/29 12:31:41;;;;;;;30.40;9.98;;;8.10;99.90;;;;;;5051184;28;20086;-63
2021/12/29 12:34:10;;;;;;;36.92;10.77;;;8.10;99.90;;;;;;5023059;28;20049;-63
2021/12/29 12:36:39;;;;;;;34.53;10.32;;;8.00;99.90;;;;;;5046763;28;20073;-63
2021/12/29 12:39:11;;;;;;;38.25;11.38;;;8.10;99.90;;;;;;5051150;28;20037;-63
2021/12/29 12:41:39;;;;;;;26.20;10.32;;;8.10;99.90;;;;;;5053213;28;20045;-63
2021/12/29 12:44:05;;;;;;;32.92;10.95;;;8.00;99.90;;;;;;5036770;28;20477;-63